sensor_id;sensor_type;location;lat;lon;timestamp;temperature;humidity
15203;DHT22;7702;51.046;5.184;2022-11-21T00:00:42;7.10;99.90
15203;DHT22;7702;51.046;5.184;2022-11-21T00:03:09;7.10;99.90
15203;DHT22;7702;51.046;5.184;2022-11-21T00:05:38;7.10;99.90
15203;DHT22;7702;51.046;5.184;2022-11-21T00:08:05;7.10;99.90
15203;DHT22;7702;51.046;5.184;2022-11-21T00:10:32;7.10;99.90
15203;DHT22;7702;51.046;5.184;2022-11-21T00:12:57;7.10;99.90
15203;DHT22;7702;51.046;5.184;2022-11-21T00:15:24;7.10;99.90
15203;DHT22;7702;51.046;5.184;2022-11-21T00:17:51;7.00;99.90
15203;DHT22;7702;51.046;5.184;2022-11-21T00:20:18;7.00;99.90
15203;DHT22;7702;51.046;5.184;2022-11-21T00:22:43;7.00;99.90
15203;DHT22;7702;51.046;5.184;2022-11-21T00:25:10;7.00;99.90
15203;DHT22;7702;51.046;5.184;2022-11-21T00:27:35;7.00;99.90
15203;DHT22;7702;51.046;5.184;2022-11-21T00:30:02;7.00;99.90
15203;DHT22;7702;51.046;5.184;2022-11-21T00:32:28;7.00;99.90
15203;DHT22;7702;51.046;5.184;2022-11-21T00:34:54;7.00;99.90
15203;DHT22;7702;51.046;5.184;2022-11-21T00:37:19;7.00;99.90
15203;DHT22;7702;51.046;5.184;2022-11-21T00:39:45;7.00;99.90
15203;DHT22;7702;51.046;5.184;2022-11-21T00:42:11;7.00;99.90
15203;DHT22;7702;51.046;5.184;2022-11-21T00:44:36;7.00;99.90
15203;DHT22;7702;51.046;5.184;2022-11-21T00:47:02;7.00;99.90
15203;DHT22;7702;51.046;5.184;2022-11-21T00:49:28;6.90;99.90
15203;DHT22;7702;51.046;5.184;2022-11-21T00:51:54;6.90;99.90
15203;DHT22;7702;51.046;5.184;2022-11-21T00:54:19;6.80;99.90
15203;DHT22;7702;51.046;5.184;2022-11-21T00:56:45;6.80;99.90
15203;DHT22;7702;51.046;5.184;2022-11-21T00:59:11;6.80;99.90
15203;DHT22;7702;51.046;5.184;2022-11-21T01:01:36;6.70;99.90
15203;DHT22;7702;51.046;5.184;2022-11-21T01:04:02;6.80;99.90
15203;DHT22;7702;51.046;5.184;2022-11-21T01:06:28;6.80;99.90
15203;DHT22;7702;51.046;5.184;2022-11-21T01:08:53;6.80;99.90
15203;DHT22;7702;51.046;5.184;2022-11-21T01:11:20;6.70;99.90
15203;DHT22;7702;51.046;5.184;2022-11-21T01:13:47;6.60;99.90
15203;DHT22;7702;51.046;5.184;2022-11-21T01:16:15;6.50;99.90
15203;DHT22;7702;51.046;5.184;2022-11-21T01:18:41;6.30;99.90
15203;DHT22;7702;51.046;5.184;2022-11-21T01:21:14;6.20;99.90
15203;DHT22;7702;51.046;5.184;2022-11-21T01:23:40;6.20;99.90
15203;DHT22;7702;51.046;5.184;2022-11-21T01:26:09;6.30;99.90
15203;DHT22;7702;51.046;5.184;2022-11-21T01:28:35;6.30;99.90
15203;DHT22;7702;51.046;5.184;2022-11-21T01:31:06;6.40;99.90
15203;DHT22;7702;51.046;5.184;2022-11-21T01:33:33;6.40;99.90
15203;DHT22;7702;51.046;5.184;2022-11-21T01:36:23;6.50;99.90
15203;DHT22;7702;51.046;5.184;2022-11-21T01:38:51;6.50;99.90
15203;DHT22;7702;51.046;5.184;2022-11-21T01:41:26;6.60;99.90
15203;DHT22;7702;51.046;5.184;2022-11-21T01:43:53;6.70;99.90
15203;DHT22;7702;51.046;5.184;2022-11-21T01:46:22;6.70;99.90
15203;DHT22;7702;51.046;5.184;2022-11-21T01:49:02;6.60;99.90
15203;DHT22;7702;51.046;5.184;2022-11-21T01:54:07;6.70;99.90
15203;DHT22;7702;51.046;5.184;2022-11-21T01:57:06;6.80;99.90
15203;DHT22;7702;51.046;5.184;2022-11-21T01:59:38;6.80;99.90
15203;DHT22;7702;51.046;5.184;2022-11-21T02:02:07;6.80;99.90
15203;DHT22;7702;51.046;5.184;2022-11-21T02:04:35;6.80;99.90
15203;DHT22;7702;51.046;5.184;2022-11-21T02:07:04;6.80;99.90
15203;DHT22;7702;51.046;5.184;2022-11-21T02:09:33;6.80;99.90
15203;DHT22;7702;51.046;5.184;2022-11-21T02:12:06;6.80;99.90
15203;DHT22;7702;51.046;5.184;2022-11-21T02:14:33;6.80;99.90
15203;DHT22;7702;51.046;5.184;2022-11-21T02:17:02;6.80;99.90
15203;DHT22;7702;51.046;5.184;2022-11-21T02:24:46;6.60;99.90
15203;DHT22;7702;51.046;5.184;2022-11-21T02:27:15;6.70;99.90
15203;DHT22;7702;51.046;5.184;2022-11-21T02:29:42;6.70;99.90
15203;DHT22;7702;51.046;5.184;2022-11-21T02:32:07;6.70;99.90
15203;DHT22;7702;51.046;5.184;2022-11-21T02:34:33;6.70;99.90
15203;DHT22;7702;51.046;5.184;2022-11-21T02:36:59;6.70;99.90
15203;DHT22;7702;51.046;5.184;2022-11-21T02:39:34;6.70;99.90
15203;DHT22;7702;51.046;5.184;2022-11-21T02:47:13;6.60;99.90
15203;DHT22;7702;51.046;5.184;2022-11-21T02:49:44;6.70;99.90
15203;DHT22;7702;51.046;5.184;2022-11-21T02:52:13;6.70;99.90
15203;DHT22;7702;51.046;5.184;2022-11-21T02:54:39;6.70;99.90
15203;DHT22;7702;51.046;5.184;2022-11-21T02:57:04;6.70;99.90
15203;DHT22;7702;51.046;5.184;2022-11-21T02:59:30;6.70;99.90
15203;DHT22;7702;51.046;5.184;2022-11-21T03:01:56;6.70;99.90
15203;DHT22;7702;51.046;5.184;2022-11-21T03:04:25;6.70;99.90
15203;DHT22;7702;51.046;5.184;2022-11-21T03:06:51;6.70;99.90
15203;DHT22;7702;51.046;5.184;2022-11-21T03:09:17;6.70;99.90
15203;DHT22;7702;51.046;5.184;2022-11-21T03:11:43;6.70;99.90
15203;DHT22;7702;51.046;5.184;2022-11-21T03:14:08;6.70;99.90
15203;DHT22;7702;51.046;5.184;2022-11-21T03:16:34;6.70;99.90
15203;DHT22;7702;51.046;5.184;2022-11-21T03:19:00;6.70;99.90
15203;DHT22;7702;51.046;5.184;2022-11-21T03:21:25;6.80;99.90
15203;DHT22;7702;51.046;5.184;2022-11-21T03:23:51;6.70;99.90
15203;DHT22;7702;51.046;5.184;2022-11-21T03:26:17;6.70;99.90
15203;DHT22;7702;51.046;5.184;2022-11-21T03:28:43;6.60;99.90
15203;DHT22;7702;51.046;5.184;2022-11-21T03:31:08;6.60;99.90
15203;DHT22;7702;51.046;5.184;2022-11-21T03:33:34;6.60;99.90
15203;DHT22;7702;51.046;5.184;2022-11-21T03:36:00;6.50;99.90
15203;DHT22;7702;51.046;5.184;2022-11-21T03:38:25;6.50;99.90
15203;DHT22;7702;51.046;5.184;2022-11-21T03:40:51;6.50;99.90
15203;DHT22;7702;51.046;5.184;2022-11-21T03:43:17;6.50;99.90
15203;DHT22;7702;51.046;5.184;2022-11-21T03:45:45;6.50;99.90
15203;DHT22;7702;51.046;5.184;2022-11-21T03:48:12;6.50;99.90
15203;DHT22;7702;51.046;5.184;2022-11-21T03:50:42;6.40;99.90
15203;DHT22;7702;51.046;5.184;2022-11-21T03:53:07;6.40;99.90
15203;DHT22;7702;51.046;5.184;2022-11-21T03:55:33;6.40;99.90
15203;DHT22;7702;51.046;5.184;2022-11-21T03:57:58;6.40;99.90
15203;DHT22;7702;51.046;5.184;2022-11-21T04:00:24;6.50;99.90
15203;DHT22;7702;51.046;5.184;2022-11-21T04:02:50;6.50;99.90
15203;DHT22;7702;51.046;5.184;2022-11-21T04:05:15;6.40;99.90
15203;DHT22;7702;51.046;5.184;2022-11-21T04:07:42;6.50;99.90
15203;DHT22;7702;51.046;5.184;2022-11-21T04:10:08;6.40;99.90
15203;DHT22;7702;51.046;5.184;2022-11-21T04:12:33;6.30;99.90
15203;DHT22;7702;51.046;5.184;2022-11-21T04:14:59;6.20;99.90
15203;DHT22;7702;51.046;5.184;2022-11-21T04:17:25;6.20;99.90
15203;DHT22;7702;51.046;5.184;2022-11-21T04:19:50;6.30;99.90
15203;DHT22;7702;51.046;5.184;2022-11-21T04:22:16;6.20;99.90
15203;DHT22;7702;51.046;5.184;2022-11-21T04:24:41;6.20;99.90
15203;DHT22;7702;51.046;5.184;2022-11-21T04:27:07;6.20;99.90
15203;DHT22;7702;51.046;5.184;2022-11-21T04:29:33;6.20;99.90
15203;DHT22;7702;51.046;5.184;2022-11-21T04:31:59;6.20;99.90
15203;DHT22;7702;51.046;5.184;2022-11-21T04:34:24;6.30;99.90
15203;DHT22;7702;51.046;5.184;2022-11-21T04:36:50;6.30;99.90
15203;DHT22;7702;51.046;5.184;2022-11-21T04:39:16;6.30;99.90
15203;DHT22;7702;51.046;5.184;2022-11-21T04:41:41;6.30;99.90
15203;DHT22;7702;51.046;5.184;2022-11-21T04:44:07;6.40;99.90
15203;DHT22;7702;51.046;5.184;2022-11-21T04:46:33;6.40;99.90
15203;DHT22;7702;51.046;5.184;2022-11-21T04:48:59;6.40;99.90
15203;DHT22;7702;51.046;5.184;2022-11-21T04:51:24;6.50;99.90
15203;DHT22;7702;51.046;5.184;2022-11-21T04:53:50;6.50;99.90
15203;DHT22;7702;51.046;5.184;2022-11-21T04:56:16;6.50;99.90
15203;DHT22;7702;51.046;5.184;2022-11-21T04:58:42;6.50;99.90
15203;DHT22;7702;51.046;5.184;2022-11-21T05:01:09;6.50;99.90
15203;DHT22;7702;51.046;5.184;2022-11-21T05:03:35;6.50;99.90
15203;DHT22;7702;51.046;5.184;2022-11-21T05:06:00;6.40;99.90
15203;DHT22;7702;51.046;5.184;2022-11-21T05:08:26;6.40;99.90
15203;DHT22;7702;51.046;5.184;2022-11-21T05:10:52;6.40;99.90
15203;DHT22;7702;51.046;5.184;2022-11-21T05:13:37;6.40;99.90
15203;DHT22;7702;51.046;5.184;2022-11-21T05:16:02;6.40;99.90
15203;DHT22;7702;51.046;5.184;2022-11-21T05:18:29;6.30;99.90
15203;DHT22;7702;51.046;5.184;2022-11-21T05:20:55;6.30;99.90
15203;DHT22;7702;51.046;5.184;2022-11-21T05:23:21;6.20;99.90
15203;DHT22;7702;51.046;5.184;2022-11-21T05:25:46;6.10;99.90
15203;DHT22;7702;51.046;5.184;2022-11-21T05:28:12;6.00;99.90
15203;DHT22;7702;51.046;5.184;2022-11-21T05:30:38;6.00;99.90
15203;DHT22;7702;51.046;5.184;2022-11-21T05:33:04;6.00;99.90
15203;DHT22;7702;51.046;5.184;2022-11-21T05:35:29;5.90;99.90
15203;DHT22;7702;51.046;5.184;2022-11-21T05:37:56;5.90;99.90
15203;DHT22;7702;51.046;5.184;2022-11-21T05:40:23;5.80;99.90
15203;DHT22;7702;51.046;5.184;2022-11-21T05:42:49;5.70;99.90
15203;DHT22;7702;51.046;5.184;2022-11-21T05:45:33;5.70;99.90
15203;DHT22;7702;51.046;5.184;2022-11-21T05:47:58;5.70;99.90
15203;DHT22;7702;51.046;5.184;2022-11-21T05:50:24;5.70;99.90
15203;DHT22;7702;51.046;5.184;2022-11-21T05:52:50;5.60;99.90
15203;DHT22;7702;51.046;5.184;2022-11-21T05:55:15;5.50;99.90
15203;DHT22;7702;51.046;5.184;2022-11-21T05:57:41;5.40;99.90
15203;DHT22;7702;51.046;5.184;2022-11-21T06:00:07;5.30;99.90
15203;DHT22;7702;51.046;5.184;2022-11-21T06:02:33;5.30;99.90
15203;DHT22;7702;51.046;5.184;2022-11-21T06:05:17;5.30;99.90
15203;DHT22;7702;51.046;5.184;2022-11-21T06:07:44;5.20;99.90
15203;DHT22;7702;51.046;5.184;2022-11-21T06:10:09;5.20;99.90
15203;DHT22;7702;51.046;5.184;2022-11-21T06:12:35;5.20;99.90
15203;DHT22;7702;51.046;5.184;2022-11-21T06:15:01;5.20;99.90
15203;DHT22;7702;51.046;5.184;2022-11-21T06:17:26;5.20;99.90
15203;DHT22;7702;51.046;5.184;2022-11-21T06:19:52;5.30;99.90
15203;DHT22;7702;51.046;5.184;2022-11-21T06:22:18;5.30;99.90
15203;DHT22;7702;51.046;5.184;2022-11-21T06:24:43;5.30;99.90
15203;DHT22;7702;51.046;5.184;2022-11-21T06:27:09;5.20;99.90
15203;DHT22;7702;51.046;5.184;2022-11-21T06:29:35;5.30;99.90
15203;DHT22;7702;51.046;5.184;2022-11-21T06:32:01;5.40;99.90
15203;DHT22;7702;51.046;5.184;2022-11-21T06:34:26;5.40;99.90
15203;DHT22;7702;51.046;5.184;2022-11-21T06:36:52;5.40;99.90
15203;DHT22;7702;51.046;5.184;2022-11-21T06:39:18;5.40;99.90
15203;DHT22;7702;51.046;5.184;2022-11-21T06:41:43;5.50;99.90
15203;DHT22;7702;51.046;5.184;2022-11-21T06:44:16;5.50;99.90
15203;DHT22;7702;51.046;5.184;2022-11-21T06:46:43;5.50;99.90
15203;DHT22;7702;51.046;5.184;2022-11-21T06:49:08;5.40;99.90
15203;DHT22;7702;51.046;5.184;2022-11-21T06:51:34;5.30;99.90
15203;DHT22;7702;51.046;5.184;2022-11-21T06:54:00;5.30;99.90
15203;DHT22;7702;51.046;5.184;2022-11-21T06:56:27;5.30;99.90
15203;DHT22;7702;51.046;5.184;2022-11-21T06:58:54;5.30;99.90
15203;DHT22;7702;51.046;5.184;2022-11-21T07:01:20;5.40;99.90
15203;DHT22;7702;51.046;5.184;2022-11-21T07:03:46;5.40;99.90
15203;DHT22;7702;51.046;5.184;2022-11-21T07:06:11;5.40;99.90
15203;DHT22;7702;51.046;5.184;2022-11-21T07:08:37;5.40;99.90
15203;DHT22;7702;51.046;5.184;2022-11-21T07:11:06;5.30;99.90
15203;DHT22;7702;51.046;5.184;2022-11-21T07:13:32;5.30;99.90
15203;DHT22;7702;51.046;5.184;2022-11-21T07:16:07;5.30;99.90
15203;DHT22;7702;51.046;5.184;2022-11-21T07:18:33;5.20;99.90
15203;DHT22;7702;51.046;5.184;2022-11-21T07:21:01;5.20;99.90
15203;DHT22;7702;51.046;5.184;2022-11-21T07:23:27;5.20;99.90
15203;DHT22;7702;51.046;5.184;2022-11-21T07:25:53;5.10;99.90
15203;DHT22;7702;51.046;5.184;2022-11-21T07:28:19;5.10;99.90
15203;DHT22;7702;51.046;5.184;2022-11-21T07:30:45;5.10;99.90
15203;DHT22;7702;51.046;5.184;2022-11-21T07:33:11;5.10;99.90
15203;DHT22;7702;51.046;5.184;2022-11-21T07:35:37;5.10;99.90
15203;DHT22;7702;51.046;5.184;2022-11-21T07:38:03;5.10;99.90
15203;DHT22;7702;51.046;5.184;2022-11-21T07:40:29;5.10;99.90
15203;DHT22;7702;51.046;5.184;2022-11-21T07:43:04;5.00;99.90
15203;DHT22;7702;51.046;5.184;2022-11-21T07:45:31;4.90;99.90
15203;DHT22;7702;51.046;5.184;2022-11-21T07:48:01;4.90;99.90
15203;DHT22;7702;51.046;5.184;2022-11-21T07:50:28;4.90;99.90
15203;DHT22;7702;51.046;5.184;2022-11-21T07:52:57;4.80;99.90
15203;DHT22;7702;51.046;5.184;2022-11-21T07:55:24;4.70;99.90
15203;DHT22;7702;51.046;5.184;2022-11-21T08:00:23;4.80;99.90
15203;DHT22;7702;51.046;5.184;2022-11-21T08:02:48;4.80;99.90
15203;DHT22;7702;51.046;5.184;2022-11-21T08:05:14;4.90;99.90
15203;DHT22;7702;51.046;5.184;2022-11-21T08:07:40;5.00;99.90
15203;DHT22;7702;51.046;5.184;2022-11-21T08:10:06;5.10;99.90
15203;DHT22;7702;51.046;5.184;2022-11-21T08:12:32;5.10;99.90
15203;DHT22;7702;51.046;5.184;2022-11-21T08:14:57;5.20;99.90
15203;DHT22;7702;51.046;5.184;2022-11-21T08:17:25;5.20;99.90
15203;DHT22;7702;51.046;5.184;2022-11-21T08:19:51;5.20;99.90
15203;DHT22;7702;51.046;5.184;2022-11-21T08:22:17;5.20;99.90
15203;DHT22;7702;51.046;5.184;2022-11-21T08:24:42;5.30;99.90
15203;DHT22;7702;51.046;5.184;2022-11-21T08:27:08;5.30;99.90
15203;DHT22;7702;51.046;5.184;2022-11-21T08:29:33;5.30;99.90
15203;DHT22;7702;51.046;5.184;2022-11-21T08:32:00;5.40;99.90
15203;DHT22;7702;51.046;5.184;2022-11-21T08:34:25;5.40;99.90
15203;DHT22;7702;51.046;5.184;2022-11-21T08:36:51;5.50;99.90
15203;DHT22;7702;51.046;5.184;2022-11-21T08:39:17;5.60;99.90
15203;DHT22;7702;51.046;5.184;2022-11-21T08:41:43;5.50;99.90
15203;DHT22;7702;51.046;5.184;2022-11-21T08:44:31;5.60;99.90
15203;DHT22;7702;51.046;5.184;2022-11-21T08:46:58;5.60;99.90
15203;DHT22;7702;51.046;5.184;2022-11-21T08:49:24;5.70;99.90
15203;DHT22;7702;51.046;5.184;2022-11-21T08:51:50;5.70;99.90
15203;DHT22;7702;51.046;5.184;2022-11-21T08:54:17;5.80;99.90
15203;DHT22;7702;51.046;5.184;2022-11-21T08:56:43;5.90;99.90
15203;DHT22;7702;51.046;5.184;2022-11-21T08:59:09;5.90;99.90
15203;DHT22;7702;51.046;5.184;2022-11-21T09:01:35;6.00;99.90
15203;DHT22;7702;51.046;5.184;2022-11-21T09:04:01;6.10;99.90
15203;DHT22;7702;51.046;5.184;2022-11-21T09:06:26;6.10;99.90
15203;DHT22;7702;51.046;5.184;2022-11-21T09:08:52;6.10;99.90
15203;DHT22;7702;51.046;5.184;2022-11-21T09:11:18;6.30;99.90
15203;DHT22;7702;51.046;5.184;2022-11-21T09:13:44;6.30;99.90
15203;DHT22;7702;51.046;5.184;2022-11-21T09:16:30;6.40;99.90
15203;DHT22;7702;51.046;5.184;2022-11-21T09:19:13;6.40;99.90
15203;DHT22;7702;51.046;5.184;2022-11-21T09:21:39;6.40;99.90
15203;DHT22;7702;51.046;5.184;2022-11-21T09:24:05;6.50;99.90
15203;DHT22;7702;51.046;5.184;2022-11-21T09:26:30;6.40;99.90
15203;DHT22;7702;51.046;5.184;2022-11-21T09:28:57;6.40;99.90
15203;DHT22;7702;51.046;5.184;2022-11-21T09:31:22;6.40;99.90
15203;DHT22;7702;51.046;5.184;2022-11-21T09:33:48;6.40;99.90
15203;DHT22;7702;51.046;5.184;2022-11-21T09:36:13;6.40;99.90
15203;DHT22;7702;51.046;5.184;2022-11-21T09:38:39;6.50;99.90
15203;DHT22;7702;51.046;5.184;2022-11-21T09:47:34;6.90;99.90
15203;DHT22;7702;51.046;5.184;2022-11-21T09:50:12;7.10;99.90
15203;DHT22;7702;51.046;5.184;2022-11-21T09:52:45;7.40;99.90
15203;DHT22;7702;51.046;5.184;2022-11-21T09:55:35;7.70;99.90
15203;DHT22;7702;51.046;5.184;2022-11-21T09:58:08;7.90;99.90
15203;DHT22;7702;51.046;5.184;2022-11-21T10:00:37;7.90;99.90
15203;DHT22;7702;51.046;5.184;2022-11-21T10:03:03;7.90;99.90
15203;DHT22;7702;51.046;5.184;2022-11-21T10:05:42;8.00;99.90
15203;DHT22;7702;51.046;5.184;2022-11-21T10:25:11;8.30;99.90
15203;DHT22;7702;51.046;5.184;2022-11-21T10:27:32;8.20;99.90
15203;DHT22;7702;51.046;5.184;2022-11-21T10:32:38;8.50;99.90
15203;DHT22;7702;51.046;5.184;2022-11-21T10:35:28;8.40;99.90
15203;DHT22;7702;51.046;5.184;2022-11-21T10:37:55;8.50;99.90
15203;DHT22;7702;51.046;5.184;2022-11-21T10:40:37;8.50;99.90
15203;DHT22;7702;51.046;5.184;2022-11-21T10:46:05;8.60;99.90
15203;DHT22;7702;51.046;5.184;2022-11-21T10:48:32;8.70;99.90
15203;DHT22;7702;51.046;5.184;2022-11-21T10:53:42;8.80;99.90
15203;DHT22;7702;51.046;5.184;2022-11-21T10:56:26;9.00;99.90
15203;DHT22;7702;51.046;5.184;2022-11-21T10:58:56;9.00;99.90
15203;DHT22;7702;51.046;5.184;2022-11-21T11:01:30;9.00;99.90
15203;DHT22;7702;51.046;5.184;2022-11-21T11:04:14;9.00;99.90
15203;DHT22;7702;51.046;5.184;2022-11-21T11:06:42;8.80;99.90
15203;DHT22;7702;51.046;5.184;2022-11-21T11:11:53;8.80;99.90
15203;DHT22;7702;51.046;5.184;2022-11-21T11:14:38;8.80;99.90
15203;DHT22;7702;51.046;5.184;2022-11-21T11:17:04;8.90;99.90
15203;DHT22;7702;51.046;5.184;2022-11-21T11:19:29;8.80;99.90
15203;DHT22;7702;51.046;5.184;2022-11-21T11:21:55;8.80;99.90
15203;DHT22;7702;51.046;5.184;2022-11-21T11:24:22;8.70;99.90
15203;DHT22;7702;51.046;5.184;2022-11-21T11:26:55;8.60;99.90
15203;DHT22;7702;51.046;5.184;2022-11-21T11:29:29;8.40;99.90
15203;DHT22;7702;51.046;5.184;2022-11-21T11:32:17;8.30;99.90
15203;DHT22;7702;51.046;5.184;2022-11-21T11:37:42;8.40;99.90
15203;DHT22;7702;51.046;5.184;2022-11-21T11:40:36;8.30;99.90
15203;DHT22;7702;51.046;5.184;2022-11-21T11:49:34;8.30;99.90
15203;DHT22;7702;51.046;5.184;2022-11-21T11:52:16;8.40;99.90
15203;DHT22;7702;51.046;5.184;2022-11-21T11:54:50;8.30;99.90
15203;DHT22;7702;51.046;5.184;2022-11-21T11:57:17;8.40;99.90
15203;DHT22;7702;51.046;5.184;2022-11-21T11:59:49;8.40;99.90
15203;DHT22;7702;51.046;5.184;2022-11-21T12:02:23;8.50;99.90
15203;DHT22;7702;51.046;5.184;2022-11-21T12:04:56;8.50;99.90
15203;DHT22;7702;51.046;5.184;2022-11-21T12:07:30;8.60;99.90
15203;DHT22;7702;51.046;5.184;2022-11-21T12:10:26;8.60;99.90
15203;DHT22;7702;51.046;5.184;2022-11-21T12:13:12;8.60;99.90
15203;DHT22;7702;51.046;5.184;2022-11-21T12:15:46;8.60;99.90
15203;DHT22;7702;51.046;5.184;2022-11-21T12:21:13;8.60;99.90
15203;DHT22;7702;51.046;5.184;2022-11-21T12:23:54;8.60;99.90
15203;DHT22;7702;51.046;5.184;2022-11-21T12:31:57;8.70;99.90
15203;DHT22;7702;51.046;5.184;2022-11-21T12:45:33;9.00;99.90
15203;DHT22;7702;51.046;5.184;2022-11-21T12:59:29;9.00;99.90
15203;DHT22;7702;51.046;5.184;2022-11-21T13:05:23;9.10;99.90
15203;DHT22;7702;51.046;5.184;2022-11-21T13:08:02;9.10;99.90
15203;DHT22;7702;51.046;5.184;2022-11-21T13:10:29;9.20;99.90
15203;DHT22;7702;51.046;5.184;2022-11-21T13:15:56;9.20;99.90
15203;DHT22;7702;51.046;5.184;2022-11-21T13:18:28;9.20;99.90
15203;DHT22;7702;51.046;5.184;2022-11-21T13:20:55;9.20;99.90
15203;DHT22;7702;51.046;5.184;2022-11-21T13:23:41;9.30;99.90
15203;DHT22;7702;51.046;5.184;2022-11-21T13:29:05;9.40;99.90
15203;DHT22;7702;51.046;5.184;2022-11-21T13:31:32;9.30;99.90
15203;DHT22;7702;51.046;5.184;2022-11-21T13:33:59;9.40;99.90
15203;DHT22;7702;51.046;5.184;2022-11-21T13:50:09;9.30;99.90
15203;DHT22;7702;51.046;5.184;2022-11-21T14:08:25;9.40;99.90
15203;DHT22;7702;51.046;5.184;2022-11-21T14:10:53;9.30;99.90
15203;DHT22;7702;51.046;5.184;2022-11-21T14:18:31;9.40;99.90
15203;DHT22;7702;51.046;5.184;2022-11-21T14:20:58;9.30;99.90
15203;DHT22;7702;51.046;5.184;2022-11-21T14:23:29;9.30;99.90
15203;DHT22;7702;51.046;5.184;2022-11-21T14:26:10;9.30;99.90
15203;DHT22;7702;51.046;5.184;2022-11-21T14:28:36;9.30;99.90
15203;DHT22;7702;51.046;5.184;2022-11-21T14:31:06;9.30;99.90
15203;DHT22;7702;51.046;5.184;2022-11-21T14:33:42;9.30;99.90
15203;DHT22;7702;51.046;5.184;2022-11-21T14:36:18;9.20;99.90
15203;DHT22;7702;51.046;5.184;2022-11-21T14:38:46;9.30;99.90
15203;DHT22;7702;51.046;5.184;2022-11-21T14:41:23;9.20;99.90
15203;DHT22;7702;51.046;5.184;2022-11-21T14:46:40;9.20;99.90
15203;DHT22;7702;51.046;5.184;2022-11-21T14:51:43;9.10;99.90
15203;DHT22;7702;51.046;5.184;2022-11-21T14:54:15;9.10;99.90
15203;DHT22;7702;51.046;5.184;2022-11-21T14:56:42;9.10;99.90
15203;DHT22;7702;51.046;5.184;2022-11-21T14:59:24;9.00;99.90
15203;DHT22;7702;51.046;5.184;2022-11-21T15:02:00;9.00;99.90
15203;DHT22;7702;51.046;5.184;2022-11-21T15:04:30;9.00;99.90
15203;DHT22;7702;51.046;5.184;2022-11-21T15:06:56;9.00;99.90
15203;DHT22;7702;51.046;5.184;2022-11-21T15:09:22;9.00;99.90
15203;DHT22;7702;51.046;5.184;2022-11-21T15:12:04;9.00;99.90
15203;DHT22;7702;51.046;5.184;2022-11-21T15:14:36;9.00;99.90
15203;DHT22;7702;51.046;5.184;2022-11-21T15:17:07;9.00;99.90
15203;DHT22;7702;51.046;5.184;2022-11-21T15:19:33;8.90;99.90
15203;DHT22;7702;51.046;5.184;2022-11-21T15:22:01;8.90;99.90
15203;DHT22;7702;51.046;5.184;2022-11-21T15:26:57;8.90;99.90
15203;DHT22;7702;51.046;5.184;2022-11-21T15:29:22;8.90;99.90
15203;DHT22;7702;51.046;5.184;2022-11-21T15:32:09;8.90;99.90
15203;DHT22;7702;51.046;5.184;2022-11-21T15:34:35;8.80;99.90
15203;DHT22;7702;51.046;5.184;2022-11-21T15:37:20;8.80;99.90
15203;DHT22;7702;51.046;5.184;2022-11-21T15:39:48;8.80;99.90
15203;DHT22;7702;51.046;5.184;2022-11-21T15:44:58;8.70;99.90
15203;DHT22;7702;51.046;5.184;2022-11-21T15:47:23;8.70;99.90
15203;DHT22;7702;51.046;5.184;2022-11-21T15:49:50;8.70;99.90
15203;DHT22;7702;51.046;5.184;2022-11-21T15:52:15;8.70;99.90
15203;DHT22;7702;51.046;5.184;2022-11-21T15:54:41;8.70;99.90
15203;DHT22;7702;51.046;5.184;2022-11-21T15:57:08;8.70;99.90
15203;DHT22;7702;51.046;5.184;2022-11-21T15:59:34;8.60;99.90
15203;DHT22;7702;51.046;5.184;2022-11-21T16:01:59;8.70;99.90
15203;DHT22;7702;51.046;5.184;2022-11-21T16:04:25;8.70;99.90
15203;DHT22;7702;51.046;5.184;2022-11-21T16:06:54;8.70;99.90
15203;DHT22;7702;51.046;5.184;2022-11-21T16:09:20;8.70;99.90
15203;DHT22;7702;51.046;5.184;2022-11-21T16:11:46;8.70;99.90
15203;DHT22;7702;51.046;5.184;2022-11-21T16:14:13;8.70;99.90
15203;DHT22;7702;51.046;5.184;2022-11-21T16:16:41;8.60;99.90
15203;DHT22;7702;51.046;5.184;2022-11-21T16:19:09;8.60;99.90
15203;DHT22;7702;51.046;5.184;2022-11-21T16:21:35;8.70;99.90
15203;DHT22;7702;51.046;5.184;2022-11-21T16:24:00;8.70;99.90
15203;DHT22;7702;51.046;5.184;2022-11-21T16:26:26;8.70;99.90
15203;DHT22;7702;51.046;5.184;2022-11-21T16:28:57;8.70;99.90
15203;DHT22;7702;51.046;5.184;2022-11-21T16:31:28;8.60;99.90
15203;DHT22;7702;51.046;5.184;2022-11-21T16:33:54;8.60;99.90
15203;DHT22;7702;51.046;5.184;2022-11-21T16:36:22;8.60;99.90
15203;DHT22;7702;51.046;5.184;2022-11-21T16:38:48;8.60;99.90
15203;DHT22;7702;51.046;5.184;2022-11-21T16:41:16;8.60;99.90
15203;DHT22;7702;51.046;5.184;2022-11-21T16:43:50;8.60;99.90
15203;DHT22;7702;51.046;5.184;2022-11-21T16:46:17;8.60;99.90
15203;DHT22;7702;51.046;5.184;2022-11-21T16:48:44;8.60;99.90
15203;DHT22;7702;51.046;5.184;2022-11-21T16:53:43;8.60;99.90
15203;DHT22;7702;51.046;5.184;2022-11-21T16:56:09;8.50;99.90
15203;DHT22;7702;51.046;5.184;2022-11-21T16:58:36;8.60;99.90
15203;DHT22;7702;51.046;5.184;2022-11-21T17:01:10;8.60;99.90
15203;DHT22;7702;51.046;5.184;2022-11-21T17:03:38;8.50;99.90
15203;DHT22;7702;51.046;5.184;2022-11-21T17:06:04;8.50;99.90
15203;DHT22;7702;51.046;5.184;2022-11-21T17:08:30;8.50;99.90
15203;DHT22;7702;51.046;5.184;2022-11-21T17:10:56;8.50;99.90
15203;DHT22;7702;51.046;5.184;2022-11-21T17:13:22;8.60;99.90
15203;DHT22;7702;51.046;5.184;2022-11-21T17:15:48;8.60;99.90
15203;DHT22;7702;51.046;5.184;2022-11-21T17:18:14;8.60;99.90
15203;DHT22;7702;51.046;5.184;2022-11-21T17:20:40;8.50;99.90
15203;DHT22;7702;51.046;5.184;2022-11-21T17:23:05;8.40;99.90
15203;DHT22;7702;51.046;5.184;2022-11-21T17:25:31;8.50;99.90
15203;DHT22;7702;51.046;5.184;2022-11-21T17:27:58;8.50;99.90
15203;DHT22;7702;51.046;5.184;2022-11-21T17:30:23;8.50;99.90
15203;DHT22;7702;51.046;5.184;2022-11-21T17:32:49;8.50;99.90
15203;DHT22;7702;51.046;5.184;2022-11-21T17:35:14;8.50;99.90
15203;DHT22;7702;51.046;5.184;2022-11-21T17:37:40;8.40;99.90
15203;DHT22;7702;51.046;5.184;2022-11-21T17:40:06;8.50;99.90
15203;DHT22;7702;51.046;5.184;2022-11-21T17:42:36;8.50;99.90
15203;DHT22;7702;51.046;5.184;2022-11-21T17:45:03;8.50;99.90
15203;DHT22;7702;51.046;5.184;2022-11-21T17:47:32;8.40;99.90
15203;DHT22;7702;51.046;5.184;2022-11-21T17:49:58;8.40;99.90
15203;DHT22;7702;51.046;5.184;2022-11-21T17:52:24;8.40;99.90
15203;DHT22;7702;51.046;5.184;2022-11-21T17:54:49;8.40;99.90
15203;DHT22;7702;51.046;5.184;2022-11-21T17:57:15;8.40;99.90
15203;DHT22;7702;51.046;5.184;2022-11-21T17:59:41;8.30;99.90
15203;DHT22;7702;51.046;5.184;2022-11-21T18:02:07;8.30;99.90
15203;DHT22;7702;51.046;5.184;2022-11-21T18:04:33;8.30;99.90
15203;DHT22;7702;51.046;5.184;2022-11-21T18:07:04;8.30;99.90
15203;DHT22;7702;51.046;5.184;2022-11-21T18:09:30;8.30;99.90
15203;DHT22;7702;51.046;5.184;2022-11-21T18:11:56;8.20;99.90
15203;DHT22;7702;51.046;5.184;2022-11-21T18:14:22;8.20;99.90
15203;DHT22;7702;51.046;5.184;2022-11-21T18:16:48;8.10;99.90
15203;DHT22;7702;51.046;5.184;2022-11-21T18:19:13;8.20;99.90
15203;DHT22;7702;51.046;5.184;2022-11-21T18:21:39;8.10;99.90
15203;DHT22;7702;51.046;5.184;2022-11-21T18:24:05;8.10;99.90
15203;DHT22;7702;51.046;5.184;2022-11-21T18:26:33;8.10;99.90
15203;DHT22;7702;51.046;5.184;2022-11-21T18:29:00;8.10;99.90
15203;DHT22;7702;51.046;5.184;2022-11-21T18:31:28;8.00;99.90
15203;DHT22;7702;51.046;5.184;2022-11-21T18:33:55;8.00;99.90
15203;DHT22;7702;51.046;5.184;2022-11-21T18:36:22;7.90;99.90